Terminal Aerodrome Forecast
Issued by NWS Charleston, WV

Current Version | Previous Version | Text Only | Print | Product List | Glossary Off
Versions: 1 2 3 4 5 6 7 8 9 10 11 12 13 14 15 16 17 18 19 20 21 22 23 24 25 26 27 28

000
FTUS41 KRLX 281700
TAFPKB
TAF
KPKB 281738Z 2818/2918 33010G15KT P6SM BKN030
     FM282100 31008KT P6SM SCT050
     FM290300 VRB03KT P6SM SKC
     FM291500 19005KT P6SM SKC=

USA.gov is the U.S. government's official web portal to all federal, state and local government web resources and services.